Time;durP1;ratioP1;P1;durP2;ratioP2;P2;SDS_P1;SDS_P2;PMS_P1;PMS_P2;Temp;Humidity;BMP_temperature;BMP_pressure;BME280_temperature;BME280_humidity;BME280_pressure;Samples;Min_cycle;Max_cycle;Signal;HPM_P1;HPM_P2
2021/07/19 00:01:05;;;;;;;;;;;15.00;83.60;;;;;;4935774;28;19914;-67
2021/07/19 00:03:30;;;;;;;;;;;14.90;84.00;;;;;;4943117;29;19922;-68
2021/07/19 00:05:56;;;;;;;;;;;14.90;83.80;;;;;;4943923;28;20072;-68
2021/07/19 00:08:21;;;;;;;;;;;14.80;84.10;;;;;;4945049;28;20012;-67
2021/07/19 00:10:47;;;;;;;;;;;14.80;84.50;;;;;;4953048;28;19937;-68
2021/07/19 00:13:13;;;;;;;;;;;14.70;84.40;;;;;;4942340;28;20206;-67
2021/07/19 00:15:38;;;;;;;;;;;14.70;84.30;;;;;;4936558;28;19926;-67
2021/07/19 00:18:04;;;;;;;;;;;14.70;83.80;;;;;;4941412;28;19928;-67
2021/07/19 00:20:29;;;;;;;;;;;14.70;83.40;;;;;;4940206;29;19941;-67
2021/07/19 00:22:55;;;;;;;;;;;14.60;83.10;;;;;;4933806;29;19953;-67
2021/07/19 00:25:21;;;;;;;;;;;14.60;83.20;;;;;;4938700;28;19910;-67
2021/07/19 00:27:47;;;;;;;;;;;14.60;82.70;;;;;;4940132;29;19981;-67
2021/07/19 00:30:14;;;;;;;;;;;14.60;82.80;;;;;;4938937;29;20021;-67
2021/07/19 00:32:40;;;;;;;;;;;14.50;82.90;;;;;;4941065;28;19985;-68
2021/07/19 00:35:06;;;;;;;;;;;14.40;83.10;;;;;;4943493;28;20012;-68
2021/07/19 00:37:32;;;;;;;;;;;14.30;83.30;;;;;;4941868;28;19926;-68
2021/07/19 00:39:58;;;;;;;;;;;14.30;83.30;;;;;;4958254;28;19918;-68
2021/07/19 00:42:23;;;;;;;;;;;14.30;83.20;;;;;;4942415;28;19937;-68
2021/07/19 00:44:49;;;;;;;;;;;14.20;83.00;;;;;;4941925;29;19994;-68
2021/07/19 00:47:15;;;;;;;;;;;14.20;82.80;;;;;;4939312;28;19918;-68
2021/07/19 00:49:42;;;;;;;;;;;14.20;82.50;;;;;;4941304;29;22100;-68
2021/07/19 00:52:07;;;;;;;;;;;14.20;82.50;;;;;;4936867;29;20275;-67
2021/07/19 00:54:33;;;;;;;;;;;14.30;82.40;;;;;;4940028;28;19997;-68
2021/07/19 00:57:01;;;;;;;;;;;14.30;82.20;;;;;;4941419;28;20249;-68
2021/07/19 00:59:27;;;;;;;;;;;14.40;82.00;;;;;;4940345;29;19998;-68
2021/07/19 01:01:53;;;;;;;;;;;14.50;81.90;;;;;;4937211;28;19968;-67
2021/07/19 01:04:20;;;;;;;;;;;14.50;81.80;;;;;;4944057;28;20340;-69
2021/07/19 01:06:47;;;;;;;;;;;14.60;81.70;;;;;;4942614;28;19919;-67
2021/07/19 01:09:13;;;;;;;;;;;14.70;81.50;;;;;;4940982;28;19914;-69
2021/07/19 01:11:38;;;;;;;;;;;14.70;81.10;;;;;;4942621;28;19915;-67
2021/07/19 01:14:04;;;;;;;;;;;14.60;81.40;;;;;;4942397;28;20332;-67
2021/07/19 01:16:29;;;;;;;;;;;14.60;81.60;;;;;;4934149;28;20391;-68
2021/07/19 01:18:55;;;;;;;;;;;14.60;81.60;;;;;;4936064;28;20173;-68
2021/07/19 01:21:21;;;;;;;;;;;14.60;81.10;;;;;;4937558;28;20112;-69
2021/07/19 01:24:05;;;;;;;;;;;14.60;81.40;;;;;;4935830;28;20136;-67
2021/07/19 01:26:39;;;;;;;;;;;14.60;81.20;;;;;;4939949;28;19941;-66
2021/07/19 01:29:06;;;;;;;;;;;14.80;81.00;;;;;;4942298;28;19948;-67
2021/07/19 01:31:33;;;;;;;;;;;14.80;80.90;;;;;;4937913;28;19963;-67
2021/07/19 01:34:10;;;;;;;;;;;14.70;80.40;;;;;;4941646;28;19922;-67
2021/07/19 01:36:38;;;;;;;;;;;14.70;80.40;;;;;;4955027;28;20024;-67
2021/07/19 01:39:06;;;;;;;;;;;14.70;80.30;;;;;;4942102;28;20231;-67
2021/07/19 01:41:33;;;;;;;;;;;14.80;80.20;;;;;;4943052;28;19942;-68
2021/07/19 01:43:59;;;;;;;;;;;14.70;79.60;;;;;;4938141;28;19941;-68
2021/07/19 01:46:26;;;;;;;;;;;14.90;79.70;;;;;;4937844;28;19972;-68
2021/07/19 01:48:54;;;;;;;;;;;14.90;79.50;;;;;;4937635;29;19953;-68
2021/07/19 01:51:19;;;;;;;;;;;14.80;79.60;;;;;;4940397;28;19921;-68
2021/07/19 01:53:44;;;;;;;;;;;14.80;79.70;;;;;;4937989;29;19918;-67
2021/07/19 01:56:10;;;;;;;;;;;14.90;79.70;;;;;;4936977;28;20006;-67
2021/07/19 01:58:36;;;;;;;;;;;14.90;80.00;;;;;;4938362;29;20763;-67
2021/07/19 02:01:05;;;;;;;;;;;15.00;79.60;;;;;;4937801;29;21738;-68
2021/07/19 02:03:31;;;;;;;;;;;15.00;79.40;;;;;;4936106;28;20328;-67
2021/07/19 02:05:57;;;;;;;;;;;15.00;79.30;;;;;;4941084;28;19974;-68
2021/07/19 02:08:24;;;;;;;;;;;14.90;79.30;;;;;;4940789;28;19918;-67
2021/07/19 02:10:50;;;;;;;;;;;14.80;79.80;;;;;;4947080;28;19919;-67
2021/07/19 02:13:16;;;;;;;;;;;14.80;79.80;;;;;;4944608;28;20061;-67
2021/07/19 02:15:42;;;;;;;;;;;15.00;79.50;;;;;;4943170;28;19925;-69
2021/07/19 02:18:10;;;;;;;;;;;14.80;79.60;;;;;;4942399;28;20307;-68
2021/07/19 02:20:36;;;;;;;;;;;14.90;79.30;;;;;;4939210;28;20549;-67
2021/07/19 02:23:02;;;;;;;;;;;14.80;79.30;;;;;;4939372;29;20174;-67
2021/07/19 02:25:27;;;;;;;;;;;14.90;79.40;;;;;;4945217;28;20328;-67
2021/07/19 02:27:54;;;;;;;;;;;15.00;79.10;;;;;;4941976;28;20017;-67
2021/07/19 02:30:21;;;;;;;;;;;15.00;78.80;;;;;;4940280;28;19914;-67
2021/07/19 02:32:51;;;;;;;;;;;15.00;79.10;;;;;;4940991;28;19966;-69
2021/07/19 02:35:17;;;;;;;;;;;15.00;79.40;;;;;;4944756;28;19915;-67
2021/07/19 02:37:43;;;;;;;;;;;15.00;79.10;;;;;;4946298;29;19933;-66
2021/07/19 02:40:10;;;;;;;;;;;15.00;78.90;;;;;;4945905;28;20010;-68
2021/07/19 02:42:39;;;;;;;;;;;14.90;79.10;;;;;;4943032;28;19943;-67
2021/07/19 02:45:09;;;;;;;;;;;15.00;78.90;;;;;;4942081;28;20517;-68
2021/07/19 02:47:35;;;;;;;;;;;15.10;78.60;;;;;;4941592;28;20572;-67
2021/07/19 02:50:01;;;;;;;;;;;15.10;78.30;;;;;;4941998;28;20100;-67
2021/07/19 02:52:27;;;;;;;;;;;15.00;78.30;;;;;;4941971;29;19948;-66
2021/07/19 02:54:53;;;;;;;;;;;15.00;78.00;;;;;;4944674;28;21852;-67
2021/07/19 02:57:18;;;;;;;;;;;15.00;78.40;;;;;;4942763;28;19981;-67
2021/07/19 02:59:44;;;;;;;;;;;15.10;78.00;;;;;;4940035;29;19918;-68
2021/07/19 03:02:10;;;;;;;;;;;15.00;77.90;;;;;;4939599;28;19922;-68
2021/07/19 03:04:37;;;;;;;;;;;15.10;77.70;;;;;;4940212;28;19991;-68
2021/07/19 03:07:03;;;;;;;;;;;15.10;77.70;;;;;;4944765;28;19934;-68
2021/07/19 03:09:31;;;;;;;;;;;15.10;77.70;;;;;;4943229;29;19927;-68
2021/07/19 03:11:57;;;;;;;;;;;15.10;77.60;;;;;;4944332;29;19918;-69
2021/07/19 03:14:24;;;;;;;;;;;15.10;77.50;;;;;;4944158;28;20336;-69
2021/07/19 03:16:51;;;;;;;;;;;15.20;77.40;;;;;;4938437;28;19926;-67
2021/07/19 03:19:18;;;;;;;;;;;15.20;77.20;;;;;;4935298;28;19941;-68
2021/07/19 03:21:44;;;;;;;;;;;15.20;77.00;;;;;;4938485;28;20300;-67
2021/07/19 03:24:10;;;;;;;;;;;15.10;77.00;;;;;;4943791;28;20367;-67
2021/07/19 03:26:37;;;;;;;;;;;15.20;77.30;;;;;;4942049;29;19922;-67
2021/07/19 03:29:03;;;;;;;;;;;15.20;77.30;;;;;;4941894;29;19961;-67
2021/07/19 03:31:29;;;;;;;;;;;15.20;77.60;;;;;;4940415;29;20028;-66
2021/07/19 03:33:55;;;;;;;;;;;15.30;77.80;;;;;;4942178;28;19926;-67
2021/07/19 03:36:20;;;;;;;;;;;15.30;77.50;;;;;;4939570;28;19910;-69
2021/07/19 03:38:47;;;;;;;;;;;15.30;77.60;;;;;;4936326;28;19919;-68
2021/07/19 03:41:13;;;;;;;;;;;15.30;77.60;;;;;;4940158;28;20006;-67
2021/07/19 03:43:39;;;;;;;;;;;15.30;77.40;;;;;;4934296;28;19910;-67
2021/07/19 03:46:05;;;;;;;;;;;15.40;77.60;;;;;;4938386;28;19918;-67
2021/07/19 03:48:31;;;;;;;;;;;15.30;77.50;;;;;;4941348;29;19941;-69
2021/07/19 03:50:56;;;;;;;;;;;15.30;77.60;;;;;;4937340;28;19914;-67
2021/07/19 03:53:23;;;;;;;;;;;15.20;77.70;;;;;;4936208;28;19966;-68
2021/07/19 03:55:49;;;;;;;;;;;15.30;77.90;;;;;;4943555;28;19941;-67
2021/07/19 03:58:15;;;;;;;;;;;15.30;77.70;;;;;;4938874;29;19919;-67
2021/07/19 04:00:41;;;;;;;;;;;15.40;78.00;;;;;;4937105;29;19993;-67
2021/07/19 04:03:23;;;;;;;;;;;15.40;77.50;;;;;;4938167;29;19918;-67
2021/07/19 04:05:55;;;;;;;;;;;15.40;77.60;;;;;;4941025;28;20007;-67
2021/07/19 04:08:21;;;;;;;;;;;15.40;77.60;;;;;;4942976;28;19949;-68
2021/07/19 04:10:48;;;;;;;;;;;15.30;77.70;;;;;;4938865;28;20372;-67
2021/07/19 04:13:15;;;;;;;;;;;15.40;77.90;;;;;;4939222;28;19923;-67
2021/07/19 04:15:45;;;;;;;;;;;15.40;77.60;;;;;;4935390;28;19994;-68
2021/07/19 04:18:11;;;;;;;;;;;15.40;77.70;;;;;;4943124;28;19926;-69
2021/07/19 04:20:37;;;;;;;;;;;15.30;78.00;;;;;;4937246;28;20002;-67
2021/07/19 04:23:02;;;;;;;;;;;15.30;77.90;;;;;;4939703;28;20001;-67
2021/07/19 04:25:28;;;;;;;;;;;15.50;78.10;;;;;;4939740;29;20328;-68
2021/07/19 04:27:53;;;;;;;;;;;15.50;77.80;;;;;;4940349;28;20410;-68
2021/07/19 04:30:20;;;;;;;;;;;15.40;77.80;;;;;;4939559;28;20392;-68
2021/07/19 04:32:47;;;;;;;;;;;15.40;77.60;;;;;;4937744;28;19971;-68
2021/07/19 04:35:19;;;;;;;;;;;15.50;78.20;;;;;;4937230;28;20296;-67
2021/07/19 04:37:50;;;;;;;;;;;15.50;78.40;;;;;;4940639;28;20129;-67
2021/07/19 04:40:16;;;;;;;;;;;15.40;78.30;;;;;;4943321;28;19925;-67
2021/07/19 04:42:41;;;;;;;;;;;15.40;78.40;;;;;;4942372;28;20368;-67
2021/07/19 04:45:07;;;;;;;;;;;15.40;78.20;;;;;;4940339;28;20048;-68
2021/07/19 04:47:33;;;;;;;;;;;15.30;78.70;;;;;;4943540;28;19967;-68
2021/07/19 04:49:59;;;;;;;;;;;15.40;79.00;;;;;;4940410;28;19933;-66
2021/07/19 04:52:24;;;;;;;;;;;15.40;79.00;;;;;;4937001;29;19932;-67
2021/07/19 04:54:50;;;;;;;;;;;15.40;78.70;;;;;;4939103;29;19919;-67
2021/07/19 04:57:17;;;;;;;;;;;15.40;78.70;;;;;;4942457;28;20083;-67
2021/07/19 04:59:49;;;;;;;;;;;15.40;78.90;;;;;;4952614;28;19925;-67
2021/07/19 05:02:19;;;;;;;;;;;15.40;79.00;;;;;;4936008;28;20317;-67
2021/07/19 05:04:45;;;;;;;;;;;15.40;78.80;;;;;;4936736;29;19914;-67
2021/07/19 05:07:12;;;;;;;;;;;15.50;79.30;;;;;;4939080;28;19914;-67
2021/07/19 05:09:40;;;;;;;;;;;15.50;79.20;;;;;;4944097;29;19930;-68
2021/07/19 05:12:09;;;;;;;;;;;15.50;79.90;;;;;;4940161;28;19950;-68
2021/07/19 05:14:34;;;;;;;;;;;15.50;79.80;;;;;;4941669;28;19981;-70
2021/07/19 05:17:01;;;;;;;;;;;15.60;79.90;;;;;;4939474;28;19919;-69
2021/07/19 05:19:27;;;;;;;;;;;15.70;79.10;;;;;;4942776;28;19926;-68
2021/07/19 05:21:52;;;;;;;;;;;15.60;79.40;;;;;;4937280;28;19915;-67
2021/07/19 05:24:28;;;;;;;;;;;15.70;79.00;;;;;;4938401;28;19957;-67
2021/07/19 05:26:53;;;;;;;;;;;15.70;79.10;;;;;;4942095;29;19950;-67
2021/07/19 05:29:19;;;;;;;;;;;15.70;79.10;;;;;;4947570;28;19950;-67
2021/07/19 05:31:44;;;;;;;;;;;15.70;79.10;;;;;;4937487;29;19969;-66
2021/07/19 05:34:10;;;;;;;;;;;15.80;79.30;;;;;;4942754;28;19997;-67
2021/07/19 05:36:35;;;;;;;;;;;15.80;79.20;;;;;;4942150;29;19926;-67
2021/07/19 05:39:01;;;;;;;;;;;15.90;78.70;;;;;;4939212;28;19914;-66
2021/07/19 05:41:26;;;;;;;;;;;15.80;79.00;;;;;;4938321;28;19948;-68
2021/07/19 05:43:52;;;;;;;;;;;15.80;78.90;;;;;;4936264;28;20377;-67
2021/07/19 05:46:17;;;;;;;;;;;15.90;79.30;;;;;;4939718;28;19918;-66
2021/07/19 05:48:43;;;;;;;;;;;16.00;79.10;;;;;;4938458;29;19915;-68
2021/07/19 05:51:08;;;;;;;;;;;16.00;78.80;;;;;;4940954;28;19946;-67
2021/07/19 05:53:33;;;;;;;;;;;16.00;78.90;;;;;;4936036;28;19927;-67
2021/07/19 05:55:59;;;;;;;;;;;16.00;78.30;;;;;;4940836;29;20327;-69
2021/07/19 05:58:24;;;;;;;;;;;16.00;78.50;;;;;;4934516;29;19926;-67
2021/07/19 06:00:50;;;;;;;;;;;16.00;78.60;;;;;;4940171;28;20379;-67
2021/07/19 06:03:16;;;;;;;;;;;16.00;77.70;;;;;;4938260;29;20009;-69
2021/07/19 06:05:42;;;;;;;;;;;16.00;78.30;;;;;;4941007;28;20392;-69
2021/07/19 06:08:08;;;;;;;;;;;16.00;78.30;;;;;;4934922;28;19985;-67
2021/07/19 06:10:33;;;;;;;;;;;16.00;78.70;;;;;;4941419;29;20252;-67
2021/07/19 06:12:59;;;;;;;;;;;16.10;79.10;;;;;;4935757;29;20334;-68
2021/07/19 06:15:24;;;;;;;;;;;16.20;78.00;;;;;;4938349;28;20364;-67
2021/07/19 06:17:50;;;;;;;;;;;16.30;78.10;;;;;;4937702;29;19918;-64
2021/07/19 06:20:20;;;;;;;;;;;16.20;77.10;;;;;;4933682;28;19930;-65
2021/07/19 06:22:47;;;;;;;;;;;16.30;77.50;;;;;;4934357;28;19930;-66
2021/07/19 06:25:13;;;;;;;;;;;16.50;76.90;;;;;;4938270;29;19921;-65
2021/07/19 06:27:39;;;;;;;;;;;16.40;77.00;;;;;;4936180;28;20579;-66
2021/07/19 06:30:06;;;;;;;;;;;16.40;76.30;;;;;;4940895;29;20021;-65
2021/07/19 06:32:32;;;;;;;;;;;16.40;76.60;;;;;;4939450;28;19926;-67
2021/07/19 06:34:58;;;;;;;;;;;16.40;76.10;;;;;;4940474;28;19925;-67
2021/07/19 06:37:23;;;;;;;;;;;16.60;76.20;;;;;;4938837;28;19918;-65
2021/07/19 06:39:49;;;;;;;;;;;16.50;75.30;;;;;;4938747;28;20017;-65
2021/07/19 06:42:14;;;;;;;;;;;16.40;75.60;;;;;;4932801;28;20148;-65
2021/07/19 06:44:40;;;;;;;;;;;16.40;75.80;;;;;;4950848;28;19914;-64
2021/07/19 06:47:05;;;;;;;;;;;16.50;75.90;;;;;;4938572;28;19922;-66
2021/07/19 06:49:31;;;;;;;;;;;16.50;75.90;;;;;;4937620;28;19914;-66
2021/07/19 06:51:56;;;;;;;;;;;16.60;75.40;;;;;;4939500;29;19919;-66
2021/07/19 06:54:22;;;;;;;;;;;16.60;75.10;;;;;;4940499;28;20359;-66
2021/07/19 06:56:48;;;;;;;;;;;16.80;75.00;;;;;;4937726;28;19922;-64
2021/07/19 06:59:14;;;;;;;;;;;16.90;74.70;;;;;;4935781;28;20381;-66
2021/07/19 07:01:40;;;;;;;;;;;17.00;74.10;;;;;;4936862;28;19919;-68
2021/07/19 07:04:06;;;;;;;;;;;17.20;73.50;;;;;;4935528;28;19911;-66
2021/07/19 07:06:32;;;;;;;;;;;17.20;73.10;;;;;;4944264;28;19930;-68
2021/07/19 07:08:59;;;;;;;;;;;17.30;72.20;;;;;;4942110;29;19981;-67
2021/07/19 07:11:25;;;;;;;;;;;17.50;72.20;;;;;;4944070;28;19911;-67
2021/07/19 07:13:50;;;;;;;;;;;17.30;71.60;;;;;;4939591;29;20419;-67
2021/07/19 07:16:16;;;;;;;;;;;17.30;72.80;;;;;;4942763;28;19934;-67
2021/07/19 07:18:41;;;;;;;;;;;17.30;72.20;;;;;;4942039;28;20069;-66
2021/07/19 07:21:07;;;;;;;;;;;17.40;72.20;;;;;;4942523;28;19942;-68
2021/07/19 07:23:32;;;;;;;;;;;17.50;72.90;;;;;;4952726;28;20344;-64
2021/07/19 07:25:58;;;;;;;;;;;17.50;72.70;;;;;;4937470;28;19927;-67
2021/07/19 07:28:23;;;;;;;;;;;17.60;71.70;;;;;;4935690;29;19922;-68
2021/07/19 07:30:49;;;;;;;;;;;17.40;70.40;;;;;;4938670;28;20275;-66
2021/07/19 07:33:14;;;;;;;;;;;17.30;71.60;;;;;;4940747;28;19933;-67
2021/07/19 07:35:40;;;;;;;;;;;17.20;71.90;;;;;;4941556;28;19910;-68
2021/07/19 07:38:09;;;;;;;;;;;17.00;72.30;;;;;;4939288;28;20042;-67
2021/07/19 07:40:34;;;;;;;;;;;17.10;72.10;;;;;;4940487;28;19947;-66
2021/07/19 07:43:00;;;;;;;;;;;17.30;72.10;;;;;;4940183;28;20351;-69
2021/07/19 07:45:25;;;;;;;;;;;17.30;71.80;;;;;;4940365;28;20498;-66
2021/07/19 07:47:51;;;;;;;;;;;17.30;71.60;;;;;;4940559;28;19918;-66
2021/07/19 07:50:16;;;;;;;;;;;17.40;71.80;;;;;;4940018;28;19918;-67
2021/07/19 07:52:42;;;;;;;;;;;17.60;73.30;;;;;;4937869;29;20514;-68
2021/07/19 07:55:08;;;;;;;;;;;17.40;70.10;;;;;;4939113;28;19918;-67
2021/07/19 07:57:33;;;;;;;;;;;17.40;70.20;;;;;;4937641;29;20048;-66
2021/07/19 07:59:59;;;;;;;;;;;17.60;69.90;;;;;;4939745;28;19937;-68
2021/07/19 08:02:25;;;;;;;;;;;17.60;69.50;;;;;;4939459;29;20013;-66
2021/07/19 08:04:50;;;;;;;;;;;17.80;69.00;;;;;;4943058;28;19979;-66
2021/07/19 08:07:15;;;;;;;;;;;17.80;67.70;;;;;;4937375;28;19992;-67
2021/07/19 08:09:41;;;;;;;;;;;18.10;68.00;;;;;;4951907;28;19922;-66
2021/07/19 08:12:07;;;;;;;;;;;18.20;67.40;;;;;;4937472;28;20034;-67
2021/07/19 08:14:33;;;;;;;;;;;18.40;67.60;;;;;;4937499;28;19921;-66
2021/07/19 08:16:58;;;;;;;;;;;18.50;66.40;;;;;;4942998;28;20005;-68
2021/07/19 08:19:28;;;;;;;;;;;18.40;66.70;;;;;;4936863;28;19918;-66
2021/07/19 08:21:56;;;;;;;;;;;18.30;65.60;;;;;;4935735;28;19937;-66
2021/07/19 08:24:21;;;;;;;;;;;18.50;65.80;;;;;;4939789;29;19915;-65
2021/07/19 08:26:47;;;;;;;;;;;18.50;66.00;;;;;;4942802;28;19926;-68
2021/07/19 08:29:12;;;;;;;;;;;18.60;65.40;;;;;;4937897;28;19933;-66
2021/07/19 08:31:44;;;;;;;;;;;18.50;65.00;;;;;;4937312;28;20006;-66
2021/07/19 08:34:09;;;;;;;;;;;18.30;65.80;;;;;;4939959;28;20418;-68
2021/07/19 08:36:35;;;;;;;;;;;18.10;65.70;;;;;;4939688;28;19918;-66
2021/07/19 08:39:00;;;;;;;;;;;18.10;66.00;;;;;;4939366;28;20323;-66
2021/07/19 08:41:26;;;;;;;;;;;18.20;66.90;;;;;;4921488;28;19929;-67
2021/07/19 08:43:52;;;;;;;;;;;18.10;67.70;;;;;;4945752;28;19997;-67
2021/07/19 08:46:17;;;;;;;;;;;18.00;67.80;;;;;;4935263;28;19958;-66
2021/07/19 08:48:45;;;;;;;;;;;18.10;67.60;;;;;;4937643;28;19995;-67
2021/07/19 08:51:11;;;;;;;;;;;18.20;66.20;;;;;;4936814;28;19914;-66
2021/07/19 08:53:37;;;;;;;;;;;18.20;67.00;;;;;;4935137;29;19933;-68
2021/07/19 08:56:02;;;;;;;;;;;18.10;66.30;;;;;;4935727;29;20024;-66
2021/07/19 08:58:28;;;;;;;;;;;18.00;65.90;;;;;;4941595;28;20021;-67
2021/07/19 09:00:55;;;;;;;;;;;17.90;67.50;;;;;;4939440;28;20005;-67
2021/07/19 09:03:21;;;;;;;;;;;18.10;66.40;;;;;;4936688;28;19989;-67
2021/07/19 09:05:47;;;;;;;;;;;18.30;67.40;;;;;;4934928;28;19945;-66
2021/07/19 09:08:12;;;;;;;;;;;18.00;66.90;;;;;;4942564;28;20438;-66
2021/07/19 09:10:38;;;;;;;;;;;17.90;66.60;;;;;;4937262;29;20340;-68
2021/07/19 09:13:06;;;;;;;;;;;17.90;67.80;;;;;;4949300;28;19922;-66
2021/07/19 09:15:33;;;;;;;;;;;17.80;66.00;;;;;;4936064;28;19981;-66
2021/07/19 09:18:00;;;;;;;;;;;17.60;67.60;;;;;;4937816;28;20021;-67
2021/07/19 09:20:28;;;;;;;;;;;17.60;67.90;;;;;;4938738;28;20359;-66
2021/07/19 09:22:53;;;;;;;;;;;17.70;67.60;;;;;;4938104;28;19920;-67
2021/07/19 09:25:20;;;;;;;;;;;17.90;67.20;;;;;;4938526;28;20000;-66
2021/07/19 09:27:55;;;;;;;;;;;17.80;68.10;;;;;;4955858;28;20343;-66
2021/07/19 09:30:22;;;;;;;;;;;17.90;67.00;;;;;;4938981;28;20017;-67
2021/07/19 09:32:54;;;;;;;;;;;17.80;67.20;;;;;;4951241;28;20306;-67
2021/07/19 09:35:20;;;;;;;;;;;17.80;67.50;;;;;;4939672;28;20307;-67
2021/07/19 09:37:45;;;;;;;;;;;17.90;66.10;;;;;;4940087;28;19934;-67
2021/07/19 09:40:11;;;;;;;;;;;17.80;65.80;;;;;;4942356;28;20057;-67
2021/07/19 09:42:43;;;;;;;;;;;17.90;65.90;;;;;;4934172;29;20021;-67
2021/07/19 09:45:09;;;;;;;;;;;18.00;66.50;;;;;;4934580;29;20343;-67
2021/07/19 09:47:36;;;;;;;;;;;18.00;66.90;;;;;;4935506;29;19922;-67
2021/07/19 09:50:12;;;;;;;;;;;18.00;66.30;;;;;;4933327;28;20347;-66
2021/07/19 09:52:37;;;;;;;;;;;18.00;65.50;;;;;;4938713;28;19942;-66
2021/07/19 09:55:03;;;;;;;;;;;18.30;65.70;;;;;;4935305;28;19937;-68
2021/07/19 09:57:29;;;;;;;;;;;18.30;64.40;;;;;;4935963;28;19926;-68
2021/07/19 09:59:55;;;;;;;;;;;18.50;64.90;;;;;;4939340;29;20448;-68
2021/07/19 10:02:38;;;;;;;;;;;18.50;64.50;;;;;;4940747;28;20018;-68
2021/07/19 10:05:05;;;;;;;;;;;18.70;63.50;;;;;;4941007;28;20176;-69
2021/07/19 10:07:30;;;;;;;;;;;18.90;62.90;;;;;;4956335;28;20054;-66
2021/07/19 10:09:56;;;;;;;;;;;19.30;63.10;;;;;;4937402;28;20025;-69
2021/07/19 10:12:22;;;;;;;;;;;19.50;62.90;;;;;;4941851;28;19926;-68
2021/07/19 10:14:48;;;;;;;;;;;19.90;61.10;;;;;;4942791;28;19934;-67
2021/07/19 10:17:14;;;;;;;;;;;19.90;58.90;;;;;;4939206;28;19919;-67
2021/07/19 10:19:41;;;;;;;;;;;20.10;59.50;;;;;;4935233;29;19926;-67
2021/07/19 10:22:07;;;;;;;;;;;20.40;59.30;;;;;;4936689;28;20038;-68
2021/07/19 10:24:33;;;;;;;;;;;21.20;57.80;;;;;;4939036;28;20045;-68
2021/07/19 10:26:59;;;;;;;;;;;21.40;56.30;;;;;;4953452;28;19914;-67
2021/07/19 10:29:25;;;;;;;;;;;21.00;56.40;;;;;;4938915;28;20380;-67
2021/07/19 10:31:50;;;;;;;;;;;20.80;56.90;;;;;;4938904;29;19934;-67
2021/07/19 10:34:18;;;;;;;;;;;20.60;56.40;;;;;;4940622;28;20007;-68
2021/07/19 10:36:54;;;;;;;;;;;20.80;57.60;;;;;;4945607;28;19922;-67
2021/07/19 10:39:21;;;;;;;;;;;21.20;57.30;;;;;;4940164;28;20057;-67
2021/07/19 10:42:03;;;;;;;;;;;20.80;57.30;;;;;;4943052;28;20330;-67
2021/07/19 10:44:36;;;;;;;;;;;20.60;55.90;;;;;;4938618;29;20010;-66
2021/07/19 10:47:18;;;;;;;;;;;20.50;57.40;;;;;;4943280;29;19982;-69
2021/07/19 10:50:02;;;;;;;;;;;20.60;58.40;;;;;;4944647;28;19921;-67
2021/07/19 10:52:35;;;;;;;;;;;20.40;58.10;;;;;;4941491;28;20097;-66
2021/07/19 10:55:02;;;;;;;;;;;20.20;58.30;;;;;;4945603;29;19918;-66
2021/07/19 10:57:35;;;;;;;;;;;20.00;58.40;;;;;;4941914;28;20096;-67
2021/07/19 11:00:02;;;;;;;;;;;20.80;55.60;;;;;;4943042;29;20061;-66
2021/07/19 11:02:28;;;;;;;;;;;21.20;56.10;;;;;;4939043;28;19973;-67
2021/07/19 11:04:54;;;;;;;;;;;20.70;55.80;;;;;;4945093;28;19947;-69
2021/07/19 11:07:21;;;;;;;;;;;21.20;55.80;;;;;;4940315;28;20075;-67
2021/07/19 11:09:47;;;;;;;;;;;21.80;55.40;;;;;;4941161;28;20252;-67
2021/07/19 11:12:15;;;;;;;;;;;22.00;54.40;;;;;;4943534;29;19933;-67
2021/07/19 11:14:42;;;;;;;;;;;22.00;52.40;;;;;;4942782;28;20575;-67
2021/07/19 11:17:08;;;;;;;;;;;21.20;55.10;;;;;;4937303;28;20033;-66
2021/07/19 11:19:39;;;;;;;;;;;21.20;55.90;;;;;;4945750;29;19911;-66
2021/07/19 11:22:06;;;;;;;;;;;20.60;58.10;;;;;;4940883;28;20016;-66
2021/07/19 11:24:38;;;;;;;;;;;20.40;59.00;;;;;;4944234;28;19914;-67
2021/07/19 11:27:03;;;;;;;;;;;20.30;59.10;;;;;;4942259;28;19985;-67
2021/07/19 11:29:33;;;;;;;;;;;20.10;60.80;;;;;;4939773;29;19918;-67
2021/07/19 11:32:03;;;;;;;;;;;20.10;60.70;;;;;;4941659;28;19925;-66
2021/07/19 11:34:28;;;;;;;;;;;20.50;57.60;;;;;;4944543;28;19914;-66
2021/07/19 11:36:54;;;;;;;;;;;21.10;55.30;;;;;;4944166;28;20049;-66
2021/07/19 11:39:20;;;;;;;;;;;21.20;53.70;;;;;;4942448;28;19914;-66
2021/07/19 11:41:46;;;;;;;;;;;20.80;55.10;;;;;;4941209;28;19918;-68
2021/07/19 11:44:15;;;;;;;;;;;20.90;54.00;;;;;;4944621;29;19965;-67
2021/07/19 11:46:41;;;;;;;;;;;21.00;55.80;;;;;;4937215;28;19967;-65
2021/07/19 11:49:09;;;;;;;;;;;21.20;54.50;;;;;;4944975;28;19926;-68
2021/07/19 11:51:35;;;;;;;;;;;21.40;52.70;;;;;;4943707;28;20005;-69
2021/07/19 11:54:01;;;;;;;;;;;21.70;53.20;;;;;;4939562;29;20013;-67
2021/07/19 11:56:27;;;;;;;;;;;21.60;52.80;;;;;;4941020;29;20013;-66
2021/07/19 11:59:02;;;;;;;;;;;23.00;51.40;;;;;;4943929;28;19918;-66
2021/07/19 12:01:32;;;;;;;;;;;23.00;50.10;;;;;;4944961;28;20021;-68
2021/07/19 12:03:59;;;;;;;;;;;22.40;50.00;;;;;;4944399;28;19977;-66
2021/07/19 12:06:25;;;;;;;;;;;21.70;50.20;;;;;;4944588;29;20005;-68
2021/07/19 12:08:52;;;;;;;;;;;20.80;53.50;;;;;;4939243;28;19922;-68
2021/07/19 12:11:18;;;;;;;;;;;21.00;55.60;;;;;;4945046;28;19975;-68
2021/07/19 12:13:43;;;;;;;;;;;21.30;58.00;;;;;;4940809;29;19934;-67
2021/07/19 12:16:10;;;;;;;;;;;21.40;55.90;;;;;;4938763;28;20268;-65
2021/07/19 12:18:35;;;;;;;;;;;21.80;56.40;;;;;;4940532;28;19982;-67
2021/07/19 12:21:03;;;;;;;;;;;22.70;53.10;;;;;;4940933;28;19951;-67
2021/07/19 12:23:47;;;;;;;;;;;22.80;51.40;;;;;;4940478;29;19929;-66
2021/07/19 12:26:15;;;;;;;;;;;22.60;51.30;;;;;;4943234;28;19922;-67
2021/07/19 12:28:56;;;;;;;;;;;22.10;52.80;;;;;;4939306;28;19915;-66
2021/07/19 12:31:47;;;;;;;;;;;21.60;53.10;;;;;;4940421;29;20244;-66
2021/07/19 12:34:23;;;;;;;;;;;21.50;54.00;;;;;;4939496;28;19915;-66
2021/07/19 12:36:53;;;;;;;;;;;21.50;53.70;;;;;;4941396;29;19918;-66
2021/07/19 12:39:20;;;;;;;;;;;21.30;54.60;;;;;;4938002;28;19973;-68
2021/07/19 12:41:47;;;;;;;;;;;20.50;53.60;;;;;;4939511;28;19910;-66
2021/07/19 12:44:12;;;;;;;;;;;20.50;54.60;;;;;;4938520;28;19937;-66
2021/07/19 12:46:42;;;;;;;;;;;20.40;55.50;;;;;;4937025;28;20418;-66
2021/07/19 12:49:08;;;;;;;;;;;20.10;55.60;;;;;;4940388;29;19940;-67
2021/07/19 12:51:35;;;;;;;;;;;20.40;56.50;;;;;;4944793;28;19957;-67
2021/07/19 12:54:02;;;;;;;;;;;20.80;54.90;;;;;;4936938;28;20233;-68
2021/07/19 12:56:28;;;;;;;;;;;20.90;55.90;;;;;;4942633;28;19929;-67
2021/07/19 12:58:56;;;;;;;;;;;21.00;54.40;;;;;;4940054;28;19926;-66
2021/07/19 13:01:28;;;;;;;;;;;21.30;51.80;;;;;;4943340;28;19990;-65
2021/07/19 13:04:00;;;;;;;;;;;21.20;52.20;;;;;;4940630;28;20009;-67
2021/07/19 13:06:25;;;;;;;;;;;21.50;51.20;;;;;;4942505;28;19915;-66
2021/07/19 13:08:51;;;;;;;;;;;21.70;52.60;;;;;;4938076;28;19955;-67
2021/07/19 13:11:16;;;;;;;;;;;21.70;51.80;;;;;;4940530;28;19922;-69
2021/07/19 13:13:42;;;;;;;;;;;21.50;52.40;;;;;;4935425;29;19915;-66
2021/07/19 13:16:08;;;;;;;;;;;20.90;54.30;;;;;;4936294;28;19967;-66
2021/07/19 13:18:35;;;;;;;;;;;20.90;56.80;;;;;;4930443;28;19922;-67
2021/07/19 13:21:02;;;;;;;;;;;20.50;55.30;;;;;;4941062;28;20007;-67
2021/07/19 13:23:31;;;;;;;;;;;20.70;56.00;;;;;;4941200;28;19980;-66
2021/07/19 13:26:03;;;;;;;;;;;20.80;54.40;;;;;;4946224;28;19959;-66
2021/07/19 13:28:29;;;;;;;;;;;20.40;54.20;;;;;;4940433;28;19915;-66
2021/07/19 13:31:00;;;;;;;;;;;20.30;54.20;;;;;;4940707;28;19918;-67
2021/07/19 13:33:26;;;;;;;;;;;20.60;55.50;;;;;;4941596;28;20021;-68
2021/07/19 13:35:52;;;;;;;;;;;20.90;53.10;;;;;;4937033;29;20251;-65
2021/07/19 13:38:18;;;;;;;;;;;20.90;52.10;;;;;;4940331;28;19938;-67
2021/07/19 13:40:48;;;;;;;;;;;20.90;53.30;;;;;;4928620;29;19986;-65
2021/07/19 13:43:19;;;;;;;;;;;20.60;53.80;;;;;;4926492;28;19973;-68
2021/07/19 13:45:45;;;;;;;;;;;20.50;54.60;;;;;;4941126;29;19915;-66
2021/07/19 13:48:10;;;;;;;;;;;20.40;57.60;;;;;;4933471;28;20217;-65
2021/07/19 13:50:36;;;;;;;;;;;20.50;57.70;;;;;;4934825;28;19930;-67
2021/07/19 13:53:01;;;;;;;;;;;20.20;58.30;;;;;;4941734;28;19931;-67
2021/07/19 13:55:27;;;;;;;;;;;20.10;59.80;;;;;;4942057;28;20570;-67
2021/07/19 13:57:52;;;;;;;;;;;20.30;59.80;;;;;;4936673;28;20009;-65
2021/07/19 14:00:18;;;;;;;;;;;20.60;57.90;;;;;;4954099;28;20025;-67
2021/07/19 14:02:44;;;;;;;;;;;21.10;57.70;;;;;;4947008;28;19915;-66
2021/07/19 14:05:10;;;;;;;;;;;21.30;57.00;;;;;;4944289;28;20451;-65
2021/07/19 14:07:35;;;;;;;;;;;21.00;55.00;;;;;;4945770;28;19959;-65
2021/07/19 14:10:01;;;;;;;;;;;21.00;55.90;;;;;;4941392;28;20345;-67
2021/07/19 14:12:27;;;;;;;;;;;21.10;57.50;;;;;;4940916;28;19981;-69
2021/07/19 14:14:52;;;;;;;;;;;21.50;56.50;;;;;;4946743;28;20403;-66